sensor_id;sensor_type;location;lat;lon;timestamp;P1;durP1;ratioP1;P2;durP2;ratioP2
31224;SDS011;17847;31.524;74.366;2022-12-18T00:02:00;220.98;;;123.00;;
31224;SDS011;17847;31.524;74.366;2022-12-18T00:04:42;216.18;;;128.93;;
31224;SDS011;17847;31.524;74.366;2022-12-18T00:07:31;209.48;;;125.03;;
31224;SDS011;17847;31.524;74.366;2022-12-18T00:10:13;217.25;;;126.88;;
31224;SDS011;17847;31.524;74.366;2022-12-18T00:13:02;217.85;;;125.07;;
31224;SDS011;17847;31.524;74.366;2022-12-18T00:15:44;213.65;;;125.60;;
31224;SDS011;17847;31.524;74.366;2022-12-18T00:18:40;201.40;;;122.57;;
31224;SDS011;17847;31.524;74.366;2022-12-18T00:21:17;213.32;;;126.32;;
31224;SDS011;17847;31.524;74.366;2022-12-18T00:24:13;213.35;;;121.53;;
31224;SDS011;17847;31.524;74.366;2022-12-18T00:26:48;205.18;;;121.43;;
31224;SDS011;17847;31.524;74.366;2022-12-18T00:29:44;212.18;;;124.53;;
31224;SDS011;17847;31.524;74.366;2022-12-18T00:32:32;214.50;;;124.90;;
31224;SDS011;17847;31.524;74.366;2022-12-18T00:35:31;204.00;;;120.32;;
31224;SDS011;17847;31.524;74.366;2022-12-18T00:38:06;200.95;;;119.88;;
31224;SDS011;17847;31.524;74.366;2022-12-18T00:41:02;214.98;;;122.53;;
31224;SDS011;17847;31.524;74.366;2022-12-18T00:43:38;206.60;;;119.78;;
31224;SDS011;17847;31.524;74.366;2022-12-18T00:46:34;214.30;;;121.97;;
31224;SDS011;17847;31.524;74.366;2022-12-18T00:49:09;222.30;;;120.60;;
31224;SDS011;17847;31.524;74.366;2022-12-18T00:52:05;209.05;;;117.80;;
31224;SDS011;17847;31.524;74.366;2022-12-18T00:54:40;205.88;;;119.53;;
31224;SDS011;17847;31.524;74.366;2022-12-18T00:57:41;212.15;;;121.47;;
31224;SDS011;17847;31.524;74.366;2022-12-18T01:00:16;204.90;;;121.53;;
31224;SDS011;17847;31.524;74.366;2022-12-18T01:03:16;217.48;;;121.43;;
31224;SDS011;17847;31.524;74.366;2022-12-18T01:05:58;219.20;;;124.05;;
31224;SDS011;17847;31.524;74.366;2022-12-18T01:08:47;225.93;;;128.37;;
31224;SDS011;17847;31.524;74.366;2022-12-18T01:11:29;207.93;;;119.28;;
31224;SDS011;17847;31.524;74.366;2022-12-18T01:14:18;207.77;;;119.10;;
31224;SDS011;17847;31.524;74.366;2022-12-18T01:16:53;200.32;;;116.72;;
31224;SDS011;17847;31.524;74.366;2022-12-18T01:19:51;213.38;;;119.82;;
31224;SDS011;17847;31.524;74.366;2022-12-18T01:22:32;205.27;;;121.22;;
31224;SDS011;17847;31.524;74.366;2022-12-18T01:25:21;208.45;;;121.43;;
31224;SDS011;17847;31.524;74.366;2022-12-18T01:27:56;207.20;;;121.40;;
31224;SDS011;17847;31.524;74.366;2022-12-18T01:30:52;205.77;;;118.65;;
31224;SDS011;17847;31.524;74.366;2022-12-18T01:33:27;202.48;;;117.97;;
31224;SDS011;17847;31.524;74.366;2022-12-18T01:36:24;198.15;;;117.90;;
31224;SDS011;17847;31.524;74.366;2022-12-18T01:39:06;204.95;;;117.43;;
31224;SDS011;17847;31.524;74.366;2022-12-18T01:42:12;201.73;;;116.60;;
31224;SDS011;17847;31.524;74.366;2022-12-18T01:45:03;193.27;;;115.68;;
31224;SDS011;17847;31.524;74.366;2022-12-18T01:47:55;202.43;;;116.60;;
31224;SDS011;17847;31.524;74.366;2022-12-18T01:50:40;202.48;;;119.80;;
31224;SDS011;17847;31.524;74.366;2022-12-18T01:53:32;199.00;;;115.22;;
31224;SDS011;17847;31.524;74.366;2022-12-18T01:56:16;211.07;;;117.15;;
31224;SDS011;17847;31.524;74.366;2022-12-18T01:59:10;210.02;;;119.30;;
31224;SDS011;17847;31.524;74.366;2022-12-18T02:01:52;204.93;;;117.43;;
31224;SDS011;17847;31.524;74.366;2022-12-18T02:04:48;200.88;;;117.18;;
31224;SDS011;17847;31.524;74.366;2022-12-18T02:07:33;200.07;;;118.10;;
31224;SDS011;17847;31.524;74.366;2022-12-18T02:13:46;205.75;;;117.22;;
31224;SDS011;17847;31.524;74.366;2022-12-18T02:20:00;203.35;;;115.75;;
31224;SDS011;17847;31.524;74.366;2022-12-18T02:25:54;209.40;;;119.10;;
31224;SDS011;17847;31.524;74.366;2022-12-18T02:28:59;208.27;;;118.75;;
31224;SDS011;17847;31.524;74.366;2022-12-18T02:31:53;209.57;;;117.72;;
31224;SDS011;17847;31.524;74.366;2022-12-18T02:34:46;196.40;;;117.10;;
31224;SDS011;17847;31.524;74.366;2022-12-18T02:37:31;215.00;;;118.25;;
31224;SDS011;17847;31.524;74.366;2022-12-18T02:40:23;212.40;;;119.28;;
31224;SDS011;17847;31.524;74.366;2022-12-18T02:43:12;206.23;;;117.18;;
31224;SDS011;17847;31.524;74.366;2022-12-18T03:01:47;203.93;;;118.57;;
31224;SDS011;17847;31.524;74.366;2022-12-18T03:04:43;210.82;;;119.63;;
31224;SDS011;17847;31.524;74.366;2022-12-18T03:07:35;207.68;;;119.53;;
31224;SDS011;17847;31.524;74.366;2022-12-18T03:10:37;211.10;;;122.03;;
31224;SDS011;17847;31.524;74.366;2022-12-18T03:16:48;211.35;;;121.15;;
31224;SDS011;17847;31.524;74.366;2022-12-18T03:19:34;219.07;;;128.52;;
31224;SDS011;17847;31.524;74.366;2022-12-18T03:22:30;211.02;;;123.13;;
31224;SDS011;17847;31.524;74.366;2022-12-18T03:25:09;227.15;;;131.00;;
31224;SDS011;17847;31.524;74.366;2022-12-18T03:28:12;237.13;;;136.20;;
31224;SDS011;17847;31.524;74.366;2022-12-18T03:30:58;243.85;;;135.05;;
31224;SDS011;17847;31.524;74.366;2022-12-18T03:34:04;232.27;;;132.20;;
31224;SDS011;17847;31.524;74.366;2022-12-18T03:37:08;239.23;;;136.57;;
31224;SDS011;17847;31.524;74.366;2022-12-18T03:39:52;225.65;;;129.75;;
31224;SDS011;17847;31.524;74.366;2022-12-18T03:42:51;213.02;;;127.13;;
31224;SDS011;17847;31.524;74.366;2022-12-18T03:45:42;213.23;;;130.88;;
31224;SDS011;17847;31.524;74.366;2022-12-18T03:48:41;201.90;;;127.50;;
31224;SDS011;17847;31.524;74.366;2022-12-18T03:51:48;207.30;;;125.32;;
31224;SDS011;17847;31.524;74.366;2022-12-18T03:54:40;209.45;;;128.10;;
31224;SDS011;17847;31.524;74.366;2022-12-18T03:57:27;213.52;;;126.28;;
31224;SDS011;17847;31.524;74.366;2022-12-18T04:00:18;207.52;;;126.95;;
31224;SDS011;17847;31.524;74.366;2022-12-18T04:03:06;210.32;;;127.97;;
31224;SDS011;17847;31.524;74.366;2022-12-18T04:06:08;216.65;;;128.30;;
31224;SDS011;17847;31.524;74.366;2022-12-18T04:08:53;221.10;;;128.82;;
31224;SDS011;17847;31.524;74.366;2022-12-18T04:11:46;192.23;;;126.70;;
31224;SDS011;17847;31.524;74.366;2022-12-18T04:14:30;218.00;;;131.70;;
31224;SDS011;17847;31.524;74.366;2022-12-18T04:17:25;218.43;;;133.10;;
31224;SDS011;17847;31.524;74.366;2022-12-18T04:20:01;217.95;;;133.68;;
31224;SDS011;17847;31.524;74.366;2022-12-18T04:22:57;212.60;;;132.65;;
31224;SDS011;17847;31.524;74.366;2022-12-18T04:25:40;218.25;;;132.13;;
31224;SDS011;17847;31.524;74.366;2022-12-18T04:28:43;212.23;;;126.55;;
31224;SDS011;17847;31.524;74.366;2022-12-18T04:31:27;183.85;;;116.53;;
31224;SDS011;17847;31.524;74.366;2022-12-18T04:34:15;192.77;;;121.47;;
31224;SDS011;17847;31.524;74.366;2022-12-18T04:36:58;198.30;;;124.05;;
31224;SDS011;17847;31.524;74.366;2022-12-18T04:39:46;208.95;;;125.90;;
31224;SDS011;17847;31.524;74.366;2022-12-18T04:42:36;179.35;;;113.30;;
31224;SDS011;17847;31.524;74.366;2022-12-18T04:45:26;181.50;;;115.03;;
31224;SDS011;17847;31.524;74.366;2022-12-18T04:48:08;185.10;;;116.47;;
31224;SDS011;17847;31.524;74.366;2022-12-18T04:50:57;184.55;;;116.63;;
31224;SDS011;17847;31.524;74.366;2022-12-18T04:53:39;185.45;;;112.80;;
31224;SDS011;17847;31.524;74.366;2022-12-18T04:56:28;182.13;;;110.95;;
31224;SDS011;17847;31.524;74.366;2022-12-18T04:59:13;186.05;;;116.18;;
31224;SDS011;17847;31.524;74.366;2022-12-18T05:02:02;199.13;;;117.20;;
31224;SDS011;17847;31.524;74.366;2022-12-18T05:04:45;187.60;;;116.32;;
31224;SDS011;17847;31.524;74.366;2022-12-18T05:07:33;193.77;;;118.03;;
31224;SDS011;17847;31.524;74.366;2022-12-18T05:10:15;191.70;;;110.47;;
31224;SDS011;17847;31.524;74.366;2022-12-18T05:13:04;166.23;;;99.03;;
31224;SDS011;17847;31.524;74.366;2022-12-18T05:15:51;173.23;;;105.88;;
31224;SDS011;17847;31.524;74.366;2022-12-18T05:18:40;172.65;;;104.95;;
31224;SDS011;17847;31.524;74.366;2022-12-18T05:21:23;174.15;;;99.60;;
31224;SDS011;17847;31.524;74.366;2022-12-18T05:24:11;168.77;;;102.18;;
31224;SDS011;17847;31.524;74.366;2022-12-18T05:26:53;169.52;;;98.70;;
31224;SDS011;17847;31.524;74.366;2022-12-18T05:29:42;162.82;;;96.32;;
31224;SDS011;17847;31.524;74.366;2022-12-18T05:32:24;146.63;;;91.47;;
31224;SDS011;17847;31.524;74.366;2022-12-18T05:35:13;146.00;;;86.72;;
31224;SDS011;17847;31.524;74.366;2022-12-18T05:38:09;164.10;;;91.32;;
31224;SDS011;17847;31.524;74.366;2022-12-18T05:40:52;143.93;;;85.18;;
31224;SDS011;17847;31.524;74.366;2022-12-18T05:43:41;140.48;;;79.55;;
31224;SDS011;17847;31.524;74.366;2022-12-18T05:46:17;150.00;;;88.28;;
31224;SDS011;17847;31.524;74.366;2022-12-18T05:49:13;142.20;;;87.28;;
31224;SDS011;17847;31.524;74.366;2022-12-18T05:51:55;159.20;;;95.53;;
31224;SDS011;17847;31.524;74.366;2022-12-18T05:54:45;141.77;;;88.35;;
31224;SDS011;17847;31.524;74.366;2022-12-18T05:57:27;145.30;;;89.32;;
31224;SDS011;17847;31.524;74.366;2022-12-18T06:00:16;146.10;;;87.28;;
31224;SDS011;17847;31.524;74.366;2022-12-18T06:02:58;161.95;;;97.85;;
31224;SDS011;17847;31.524;74.366;2022-12-18T06:05:47;185.25;;;110.57;;
31224;SDS011;17847;31.524;74.366;2022-12-18T06:08:30;193.20;;;117.18;;
31224;SDS011;17847;31.524;74.366;2022-12-18T06:11:25;190.18;;;114.38;;
31224;SDS011;17847;31.524;74.366;2022-12-18T06:14:09;186.98;;;111.95;;
31224;SDS011;17847;31.524;74.366;2022-12-18T06:17:05;188.15;;;114.45;;
31224;SDS011;17847;31.524;74.366;2022-12-18T06:19:46;194.73;;;114.65;;
31224;SDS011;17847;31.524;74.366;2022-12-18T06:22:35;198.60;;;117.20;;
31224;SDS011;17847;31.524;74.366;2022-12-18T06:25:11;236.65;;;131.73;;
31224;SDS011;17847;31.524;74.366;2022-12-18T06:28:28;236.70;;;131.13;;
31224;SDS011;17847;31.524;74.366;2022-12-18T06:31:04;225.20;;;124.32;;
31224;SDS011;17847;31.524;74.366;2022-12-18T06:34:01;221.73;;;123.75;;
31224;SDS011;17847;31.524;74.366;2022-12-18T06:36:44;216.10;;;120.00;;
31224;SDS011;17847;31.524;74.366;2022-12-18T06:39:33;215.33;;;118.70;;
31224;SDS011;17847;31.524;74.366;2022-12-18T06:42:15;209.38;;;118.88;;
31224;SDS011;17847;31.524;74.366;2022-12-18T06:45:04;202.43;;;115.68;;
31224;SDS011;17847;31.524;74.366;2022-12-18T06:47:46;203.98;;;114.32;;
31224;SDS011;17847;31.524;74.366;2022-12-18T06:50:36;202.15;;;116.43;;
31224;SDS011;17847;31.524;74.366;2022-12-18T06:53:18;187.90;;;114.38;;
31224;SDS011;17847;31.524;74.366;2022-12-18T06:56:14;185.60;;;111.53;;
31224;SDS011;17847;31.524;74.366;2022-12-18T06:58:56;181.18;;;107.35;;
31224;SDS011;17847;31.524;74.366;2022-12-18T07:01:45;188.93;;;106.22;;
31224;SDS011;17847;31.524;74.366;2022-12-18T07:04:29;177.63;;;103.43;;
31224;SDS011;17847;31.524;74.366;2022-12-18T07:07:19;169.32;;;95.97;;
31224;SDS011;17847;31.524;74.366;2022-12-18T07:10:01;158.25;;;92.78;;
31224;SDS011;17847;31.524;74.366;2022-12-18T07:12:58;163.35;;;93.40;;
31224;SDS011;17847;31.524;74.366;2022-12-18T07:15:39;163.02;;;91.53;;
31224;SDS011;17847;31.524;74.366;2022-12-18T07:18:28;162.38;;;92.25;;
31224;SDS011;17847;31.524;74.366;2022-12-18T07:21:07;168.55;;;92.78;;
31224;SDS011;17847;31.524;74.366;2022-12-18T07:24:05;175.07;;;95.60;;
31224;SDS011;17847;31.524;74.366;2022-12-18T07:26:54;162.82;;;95.82;;
31224;SDS011;17847;31.524;74.366;2022-12-18T07:29:37;160.95;;;95.40;;
31224;SDS011;17847;31.524;74.366;2022-12-18T07:32:32;161.77;;;96.60;;
31224;SDS011;17847;31.524;74.366;2022-12-18T07:35:13;168.45;;;96.47;;
31224;SDS011;17847;31.524;74.366;2022-12-18T07:38:04;165.65;;;94.35;;
31224;SDS011;17847;31.524;74.366;2022-12-18T07:40:39;159.52;;;98.43;;
31224;SDS011;17847;31.524;74.366;2022-12-18T07:43:35;158.45;;;95.70;;
31224;SDS011;17847;31.524;74.366;2022-12-18T07:46:17;163.95;;;95.53;;
31224;SDS011;17847;31.524;74.366;2022-12-18T07:49:07;151.40;;;92.47;;
31224;SDS011;17847;31.524;74.366;2022-12-18T07:51:42;163.63;;;90.10;;
31224;SDS011;17847;31.524;74.366;2022-12-18T07:54:38;162.07;;;94.25;;
31224;SDS011;17847;31.524;74.366;2022-12-18T07:57:14;163.82;;;95.03;;
31224;SDS011;17847;31.524;74.366;2022-12-18T08:00:29;164.88;;;92.57;;
31224;SDS011;17847;31.524;74.366;2022-12-18T08:03:15;167.20;;;96.32;;
31224;SDS011;17847;31.524;74.366;2022-12-18T08:06:04;169.50;;;97.15;;
31224;SDS011;17847;31.524;74.366;2022-12-18T08:08:48;171.07;;;95.43;;
31224;SDS011;17847;31.524;74.366;2022-12-18T08:11:49;171.90;;;96.65;;
31224;SDS011;17847;31.524;74.366;2022-12-18T08:14:31;170.93;;;97.97;;
31224;SDS011;17847;31.524;74.366;2022-12-18T08:17:20;172.43;;;98.68;;
31224;SDS011;17847;31.524;74.366;2022-12-18T08:20:05;167.63;;;96.72;;
31224;SDS011;17847;31.524;74.366;2022-12-18T08:22:56;168.80;;;98.25;;
31224;SDS011;17847;31.524;74.366;2022-12-18T08:25:46;182.70;;;100.45;;
31224;SDS011;17847;31.524;74.366;2022-12-18T08:28:42;179.85;;;100.85;;
31224;SDS011;17847;31.524;74.366;2022-12-18T08:31:18;185.73;;;103.03;;
31224;SDS011;17847;31.524;74.366;2022-12-18T08:34:14;185.88;;;103.85;;
31224;SDS011;17847;31.524;74.366;2022-12-18T08:36:49;178.48;;;104.60;;
31224;SDS011;17847;31.524;74.366;2022-12-18T08:39:45;186.68;;;103.93;;
31224;SDS011;17847;31.524;74.366;2022-12-18T08:42:20;180.98;;;104.75;;
31224;SDS011;17847;31.524;74.366;2022-12-18T08:45:34;177.63;;;100.30;;
31224;SDS011;17847;31.524;74.366;2022-12-18T08:48:09;185.80;;;100.65;;
31224;SDS011;17847;31.524;74.366;2022-12-18T08:51:05;193.57;;;104.60;;
31224;SDS011;17847;31.524;74.366;2022-12-18T08:53:41;186.75;;;103.28;;
31224;SDS011;17847;31.524;74.366;2022-12-18T08:56:37;174.48;;;101.03;;
31224;SDS011;17847;31.524;74.366;2022-12-18T08:59:20;178.43;;;103.43;;
31224;SDS011;17847;31.524;74.366;2022-12-18T09:02:10;183.38;;;105.35;;
31224;SDS011;17847;31.524;74.366;2022-12-18T09:04:52;206.70;;;112.38;;
31224;SDS011;17847;31.524;74.366;2022-12-18T09:07:41;184.50;;;107.57;;
31224;SDS011;17847;31.524;74.366;2022-12-18T09:10:23;188.57;;;105.93;;
31224;SDS011;17847;31.524;74.366;2022-12-18T09:13:15;209.40;;;115.72;;
31224;SDS011;17847;31.524;74.366;2022-12-18T09:15:58;224.60;;;119.47;;
31224;SDS011;17847;31.524;74.366;2022-12-18T09:18:47;217.43;;;118.85;;
31224;SDS011;17847;31.524;74.366;2022-12-18T09:21:30;217.63;;;118.75;;
31224;SDS011;17847;31.524;74.366;2022-12-18T09:24:27;220.77;;;119.60;;
31224;SDS011;17847;31.524;74.366;2022-12-18T09:27:16;211.68;;;117.13;;
31224;SDS011;17847;31.524;74.366;2022-12-18T09:29:57;221.43;;;121.15;;
31224;SDS011;17847;31.524;74.366;2022-12-18T09:32:47;208.55;;;119.22;;
31224;SDS011;17847;31.524;74.366;2022-12-18T09:35:29;266.88;;;140.02;;
31224;SDS011;17847;31.524;74.366;2022-12-18T09:38:19;268.33;;;139.43;;
31224;SDS011;17847;31.524;74.366;2022-12-18T09:41:06;269.83;;;140.95;;
31224;SDS011;17847;31.524;74.366;2022-12-18T09:47:11;253.45;;;135.15;;
31224;SDS011;17847;31.524;74.366;2022-12-18T09:50:15;274.20;;;135.98;;
31224;SDS011;17847;31.524;74.366;2022-12-18T09:53:09;251.13;;;132.48;;
31224;SDS011;17847;31.524;74.366;2022-12-18T09:56:03;244.85;;;129.55;;
31224;SDS011;17847;31.524;74.366;2022-12-18T09:58:57;255.70;;;131.15;;
31224;SDS011;17847;31.524;74.366;2022-12-18T10:01:47;246.15;;;131.57;;
31224;SDS011;17847;31.524;74.366;2022-12-18T10:04:30;239.52;;;128.52;;
31224;SDS011;17847;31.524;74.366;2022-12-18T10:07:25;232.38;;;123.38;;
31224;SDS011;17847;31.524;74.366;2022-12-18T10:16:08;226.98;;;121.72;;
31224;SDS011;17847;31.524;74.366;2022-12-18T10:19:09;204.73;;;115.30;;
31224;SDS011;17847;31.524;74.366;2022-12-18T10:28:12;205.70;;;110.47;;
31224;SDS011;17847;31.524;74.366;2022-12-18T10:30:55;192.27;;;105.85;;
31224;SDS011;17847;31.524;74.366;2022-12-18T10:33:45;197.98;;;104.50;;
31224;SDS011;17847;31.524;74.366;2022-12-18T10:36:28;197.77;;;109.13;;
31224;SDS011;17847;31.524;74.366;2022-12-18T10:39:22;197.35;;;103.13;;
31224;SDS011;17847;31.524;74.366;2022-12-18T10:42:16;191.95;;;105.07;;
31224;SDS011;17847;31.524;74.366;2022-12-18T10:45:14;182.68;;;105.95;;
31224;SDS011;17847;31.524;74.366;2022-12-18T10:47:57;212.43;;;104.47;;
31224;SDS011;17847;31.524;74.366;2022-12-18T10:50:47;198.95;;;109.43;;
31224;SDS011;17847;31.524;74.366;2022-12-18T10:53:51;198.50;;;104.00;;
31224;SDS011;17847;31.524;74.366;2022-12-18T10:57:28;183.57;;;105.00;;
31224;SDS011;17847;31.524;74.366;2022-12-18T11:00:03;211.18;;;104.80;;
31224;SDS011;17847;31.524;74.366;2022-12-18T11:03:34;190.35;;;104.20;;
31224;SDS011;17847;31.524;74.366;2022-12-18T11:06:21;196.60;;;104.28;;
31224;SDS011;17847;31.524;74.366;2022-12-18T11:09:20;189.65;;;106.18;;
31224;SDS011;17847;31.524;74.366;2022-12-18T11:12:04;189.43;;;105.55;;
31224;SDS011;17847;31.524;74.366;2022-12-18T11:15:14;184.35;;;105.55;;
31224;SDS011;17847;31.524;74.366;2022-12-18T11:17:54;207.07;;;110.13;;
31224;SDS011;17847;31.524;74.366;2022-12-18T11:20:51;188.43;;;103.50;;
31224;SDS011;17847;31.524;74.366;2022-12-18T11:23:50;199.98;;;102.65;;
31224;SDS011;17847;31.524;74.366;2022-12-18T11:26:48;189.32;;;104.97;;
31224;SDS011;17847;31.524;74.366;2022-12-18T11:29:36;182.98;;;101.07;;
31224;SDS011;17847;31.524;74.366;2022-12-18T11:32:33;184.23;;;100.47;;
31224;SDS011;17847;31.524;74.366;2022-12-18T11:38:39;176.10;;;99.05;;
31224;SDS011;17847;31.524;74.366;2022-12-18T11:51:04;214.88;;;110.32;;
31224;SDS011;17847;31.524;74.366;2022-12-18T11:54:00;213.83;;;110.90;;
31224;SDS011;17847;31.524;74.366;2022-12-18T11:56:56;211.90;;;110.87;;
31224;SDS011;17847;31.524;74.366;2022-12-18T12:05:44;193.82;;;105.90;;
31224;SDS011;17847;31.524;74.366;2022-12-18T12:24:27;210.15;;;110.28;;
31224;SDS011;17847;31.524;74.366;2022-12-18T12:30:30;210.27;;;109.43;;
31224;SDS011;17847;31.524;74.366;2022-12-18T12:33:50;196.48;;;108.55;;
31224;SDS011;17847;31.524;74.366;2022-12-18T12:39:42;216.57;;;111.88;;
31224;SDS011;17847;31.524;74.366;2022-12-18T12:42:35;210.65;;;112.28;;
31224;SDS011;17847;31.524;74.366;2022-12-18T12:45:50;208.73;;;111.00;;
31224;SDS011;17847;31.524;74.366;2022-12-18T12:48:52;208.23;;;107.65;;
31224;SDS011;17847;31.524;74.366;2022-12-18T12:54:38;212.68;;;109.35;;
31224;SDS011;17847;31.524;74.366;2022-12-18T12:57:40;222.88;;;111.55;;
31224;SDS011;17847;31.524;74.366;2022-12-18T13:00:28;221.60;;;112.60;;
31224;SDS011;17847;31.524;74.366;2022-12-18T13:03:41;214.82;;;115.13;;
31224;SDS011;17847;31.524;74.366;2022-12-18T13:06:41;226.25;;;115.93;;
31224;SDS011;17847;31.524;74.366;2022-12-18T13:09:37;236.52;;;114.00;;
31224;SDS011;17847;31.524;74.366;2022-12-18T13:13:01;224.75;;;115.15;;
31224;SDS011;17847;31.524;74.366;2022-12-18T13:16:07;216.90;;;115.22;;
31224;SDS011;17847;31.524;74.366;2022-12-18T13:18:52;223.18;;;117.68;;
31224;SDS011;17847;31.524;74.366;2022-12-18T13:21:43;239.98;;;125.10;;
31224;SDS011;17847;31.524;74.366;2022-12-18T13:24:35;233.68;;;120.68;;
31224;SDS011;17847;31.524;74.366;2022-12-18T13:33:43;210.90;;;114.35;;
31224;SDS011;17847;31.524;74.366;2022-12-18T13:36:46;228.98;;;117.80;;
31224;SDS011;17847;31.524;74.366;2022-12-18T13:39:36;227.43;;;120.65;;
31224;SDS011;17847;31.524;74.366;2022-12-18T13:45:50;225.43;;;117.97;;
31224;SDS011;17847;31.524;74.366;2022-12-18T13:48:54;231.07;;;118.07;;
31224;SDS011;17847;31.524;74.366;2022-12-18T13:52:00;230.75;;;118.50;;
31224;SDS011;17847;31.524;74.366;2022-12-18T13:54:45;224.07;;;119.13;;
31224;SDS011;17847;31.524;74.366;2022-12-18T13:57:38;230.90;;;119.45;;
31224;SDS011;17847;31.524;74.366;2022-12-18T14:03:20;228.38;;;118.70;;
31224;SDS011;17847;31.524;74.366;2022-12-18T14:06:08;226.45;;;121.38;;
31224;SDS011;17847;31.524;74.366;2022-12-18T14:08:57;223.00;;;121.00;;
31224;SDS011;17847;31.524;74.366;2022-12-18T14:11:45;227.35;;;119.05;;
31224;SDS011;17847;31.524;74.366;2022-12-18T14:14:55;234.02;;;121.20;;
31224;SDS011;17847;31.524;74.366;2022-12-18T14:17:38;225.90;;;121.18;;
31224;SDS011;17847;31.524;74.366;2022-12-18T14:20:27;235.27;;;123.80;;
31224;SDS011;17847;31.524;74.366;2022-12-18T14:26:29;241.93;;;123.85;;
31224;SDS011;17847;31.524;74.366;2022-12-18T14:29:28;230.52;;;120.82;;
31224;SDS011;17847;31.524;74.366;2022-12-18T14:32:19;246.45;;;123.40;;
31224;SDS011;17847;31.524;74.366;2022-12-18T14:35:12;243.15;;;125.60;;
31224;SDS011;17847;31.524;74.366;2022-12-18T14:41:04;239.98;;;129.15;;
31224;SDS011;17847;31.524;74.366;2022-12-18T14:44:04;258.38;;;132.27;;
31224;SDS011;17847;31.524;74.366;2022-12-18T14:46:49;237.35;;;124.55;;
31224;SDS011;17847;31.524;74.366;2022-12-18T14:49:45;237.80;;;126.30;;
31224;SDS011;17847;31.524;74.366;2022-12-18T14:52:28;247.05;;;129.43;;
31224;SDS011;17847;31.524;74.366;2022-12-18T14:55:20;249.25;;;129.50;;
31224;SDS011;17847;31.524;74.366;2022-12-18T14:58:02;245.80;;;127.05;;
31224;SDS011;17847;31.524;74.366;2022-12-18T15:00:51;251.25;;;129.73;;
31224;SDS011;17847;31.524;74.366;2022-12-18T15:03:27;258.45;;;134.73;;
31224;SDS011;17847;31.524;74.366;2022-12-18T15:06:28;237.02;;;129.00;;
31224;SDS011;17847;31.524;74.366;2022-12-18T15:09:23;232.18;;;126.80;;
31224;SDS011;17847;31.524;74.366;2022-12-18T15:18:29;232.00;;;123.07;;
31224;SDS011;17847;31.524;74.366;2022-12-18T15:21:20;245.85;;;129.55;;
31224;SDS011;17847;31.524;74.366;2022-12-18T15:24:13;232.98;;;126.20;;
31224;SDS011;17847;31.524;74.366;2022-12-18T15:27:19;244.88;;;126.55;;
31224;SDS011;17847;31.524;74.366;2022-12-18T15:33:20;255.13;;;134.45;;
31224;SDS011;17847;31.524;74.366;2022-12-18T15:36:09;250.23;;;129.95;;
31224;SDS011;17847;31.524;74.366;2022-12-18T15:39:06;257.50;;;132.88;;
31224;SDS011;17847;31.524;74.366;2022-12-18T15:41:48;254.45;;;130.55;;
31224;SDS011;17847;31.524;74.366;2022-12-18T15:44:57;260.17;;;135.30;;
31224;SDS011;17847;31.524;74.366;2022-12-18T15:47:39;265.90;;;137.75;;
31224;SDS011;17847;31.524;74.366;2022-12-18T15:50:33;258.55;;;135.07;;
31224;SDS011;17847;31.524;74.366;2022-12-18T15:53:16;266.42;;;137.52;;
31224;SDS011;17847;31.524;74.366;2022-12-18T15:56:09;273.42;;;142.95;;
31224;SDS011;17847;31.524;74.366;2022-12-18T15:59:12;270.45;;;140.07;;
31224;SDS011;17847;31.524;74.366;2022-12-18T16:02:07;280.33;;;145.30;;
31224;SDS011;17847;31.524;74.366;2022-12-18T16:04:59;275.17;;;146.75;;
31224;SDS011;17847;31.524;74.366;2022-12-18T16:07:48;268.23;;;140.50;;
31224;SDS011;17847;31.524;74.366;2022-12-18T16:10:30;278.08;;;144.60;;
31224;SDS011;17847;31.524;74.366;2022-12-18T16:13:19;289.95;;;147.48;;
31224;SDS011;17847;31.524;74.366;2022-12-18T16:16:03;278.35;;;145.38;;
31224;SDS011;17847;31.524;74.366;2022-12-18T16:18:52;279.98;;;148.90;;
31224;SDS011;17847;31.524;74.366;2022-12-18T16:21:35;270.88;;;144.07;;
31224;SDS011;17847;31.524;74.366;2022-12-18T16:24:25;271.33;;;144.93;;
31224;SDS011;17847;31.524;74.366;2022-12-18T16:27:16;271.60;;;140.02;;
31224;SDS011;17847;31.524;74.366;2022-12-18T16:30:14;272.48;;;145.65;;
31224;SDS011;17847;31.524;74.366;2022-12-18T16:32:58;287.57;;;147.73;;
31224;SDS011;17847;31.524;74.366;2022-12-18T16:35:51;286.63;;;150.38;;
31224;SDS011;17847;31.524;74.366;2022-12-18T16:38:33;278.10;;;146.03;;
31224;SDS011;17847;31.524;74.366;2022-12-18T16:41:29;273.85;;;145.00;;
31224;SDS011;17847;31.524;74.366;2022-12-18T16:44:08;269.33;;;145.95;;
31224;SDS011;17847;31.524;74.366;2022-12-18T16:47:04;273.73;;;142.73;;
31224;SDS011;17847;31.524;74.366;2022-12-18T16:49:47;270.55;;;145.07;;
31224;SDS011;17847;31.524;74.366;2022-12-18T16:52:40;269.55;;;143.00;;
31224;SDS011;17847;31.524;74.366;2022-12-18T16:55:22;270.70;;;143.68;;
31224;SDS011;17847;31.524;74.366;2022-12-18T16:58:11;275.83;;;142.60;;
31224;SDS011;17847;31.524;74.366;2022-12-18T17:00:46;269.92;;;142.75;;
31224;SDS011;17847;31.524;74.366;2022-12-18T17:03:42;264.58;;;140.40;;
31224;SDS011;17847;31.524;74.366;2022-12-18T17:06:23;269.60;;;146.35;;
31224;SDS011;17847;31.524;74.366;2022-12-18T17:09:22;271.27;;;141.10;;
31224;SDS011;17847;31.524;74.366;2022-12-18T17:12:17;274.58;;;146.27;;
31224;SDS011;17847;31.524;74.366;2022-12-18T17:14:52;269.05;;;148.13;;
31224;SDS011;17847;31.524;74.366;2022-12-18T17:17:48;270.33;;;147.43;;
31224;SDS011;17847;31.524;74.366;2022-12-18T17:20:30;280.63;;;148.55;;
31224;SDS011;17847;31.524;74.366;2022-12-18T17:23:19;287.40;;;151.25;;
31224;SDS011;17847;31.524;74.366;2022-12-18T17:26:00;273.40;;;146.13;;
31224;SDS011;17847;31.524;74.366;2022-12-18T17:28:50;282.02;;;151.57;;
31224;SDS011;17847;31.524;74.366;2022-12-18T17:31:46;292.23;;;151.27;;
31224;SDS011;17847;31.524;74.366;2022-12-18T17:34:31;283.45;;;149.32;;
31224;SDS011;17847;31.524;74.366;2022-12-18T17:37:21;291.05;;;156.10;;
31224;SDS011;17847;31.524;74.366;2022-12-18T17:40:04;291.20;;;154.15;;
31224;SDS011;17847;31.524;74.366;2022-12-18T17:42:56;286.25;;;153.25;;
31224;SDS011;17847;31.524;74.366;2022-12-18T17:45:41;282.95;;;147.65;;
31224;SDS011;17847;31.524;74.366;2022-12-18T17:48:30;292.20;;;152.50;;
31224;SDS011;17847;31.524;74.366;2022-12-18T17:51:18;292.83;;;150.88;;